CDT,Max TemperatureF,Mean TemperatureF,Min TemperatureF,Max Dew PointF,MeanDew PointF,Min DewpointF,Max Humidity, Mean Humidity, Min Humidity, Max Sea Level PressureIn, Mean Sea Level PressureIn, Min Sea Level PressureIn, Max VisibilityMiles, Mean VisibilityMiles, Min VisibilityMiles, Max Wind SpeedMPH, Mean Wind SpeedMPH, Max Gust SpeedMPH,PrecipitationIn, CloudCover, Events, WindDirDegrees
2013-10-1,91,82,73,75,73,70,100,80,59,29.93,29.89,29.84,10,10,7,18,7,25,0.00,4,,136
2013-10-2,83,78,73,76,73,71,100,87,74,29.98,29.94,29.88,10,8,1,18,7,25,0.64,5,Rain-Thunderstorm,139
2013-10-3,88,81,73,75,73,70,100,80,59,29.97,29.91,29.84,10,9,6,15,6,21,0.00,5,,158
2013-10-4,89,81,72,73,71,69,100,76,52,29.94,29.90,29.85,10,10,5,16,8,23,0.00,2,,155
2013-10-5,89,75,60,75,67,48,100,75,50,30.03,29.94,29.88,10,10,10,23,9,29,0.00,4,,297
2013-10-6,81,69,56,57,47,36,93,57,21,30.12,30.06,30.01,10,10,7,18,8,28,0.10,1,Rain-Thunderstorm,331
2013-10-7,83,68,52,48,43,37,77,49,20,30.16,30.09,30.04,10,10,7,14,5,23,0.00,0,,5
2013-10-8,83,68,53,53,47,42,72,49,26,30.10,30.05,29.99,10,10,10,8,2,10,0.00,0,,98
2013-10-9,83,70,56,60,56,53,93,66,39,30.08,30.02,29.98,10,10,9,12,4,16,0.00,0,,140
2013-10-10,85,73,61,66,62,59,93,69,44,30.06,29.99,29.91,10,10,6,16,7,20,0.00,1,,146
2013-10-11,87,78,68,73,69,66,94,77,59,29.97,29.90,29.85,10,10,10,20,10,25,T,4,,158
2013-10-12,89,80,71,77,73,68,100,82,63,30.03,29.97,29.91,10,10,6,30,8,41,0.03,5,Rain-Thunderstorm,143
2013-10-13,76,72,67,72,69,66,100,91,82,30.16,30.09,30.03,10,7,0,30,8,46,4.29,7,Fog-Rain-Thunderstorm,66
2013-10-14,83,76,69,73,70,69,100,83,65,30.10,30.04,29.94,10,9,2,18,8,24,0.06,7,Rain,119
2013-10-15,85,75,64,73,71,65,100,83,65,29.99,29.94,29.88,10,9,4,18,6,23,0.03,5,,199
2013-10-16,64,61,58,64,58,55,100,92,84,30.06,30.00,29.94,10,9,2,15,9,18,0.35,8,Rain,342
2013-10-17,73,64,54,56,53,50,93,70,47,30.12,30.04,29.99,10,10,10,12,6,26,0.00,1,,16
2013-10-18,71,64,57,58,55,53,86,72,57,30.01,29.97,29.91,10,10,10,15,5,18,T,6,,86
2013-10-19,67,59,51,58,47,38,87,61,34,30.18,30.10,29.99,10,10,10,21,10,26,0.00,3,,347
2013-10-20,73,59,44,52,46,41,86,61,35,30.10,30.02,29.94,10,10,10,14,5,17,0.00,0,,145
2013-10-21,80,69,57,65,61,53,100,77,54,30.03,29.96,29.91,10,9,3,20,6,25,0.20,4,Rain-Thunderstorm,136
2013-10-22,74,64,53,59,51,41,90,61,31,30.14,30.08,30.03,10,10,10,17,8,22,0.00,3,,352
2013-10-23,81,66,50,55,49,43,89,58,26,30.15,30.11,30.09,10,10,9,10,1,15,0.00,0,,254
2013-10-24,82,67,52,54,50,44,83,56,28,30.23,30.17,30.11,10,10,9,9,2,76,0.00,0,,223
2013-10-25,77,66,55,56,54,51,93,72,50,30.35,30.27,30.22,10,10,10,15,6,20,0.00,0,,96
2013-10-26,81,67,53,63,57,49,83,69,54,30.24,30.16,30.08,10,10,10,17,8,22,0.00,1,Thunderstorm,131
2013-10-27,71,66,61,64,62,60,100,89,78,30.11,30.06,30.02,10,9,1,32,4,48,1.40,7,Rain-Thunderstorm,69
2013-10-28,83,74,64,69,65,61,93,78,62,30.12,30.06,30.00,10,10,10,17,8,22,0.00,5,,134
2013-10-29,84,77,69,70,68,67,97,78,58,30.10,30.05,30.00,10,10,10,20,11,25,0.00,2,,155
2013-10-30,84,78,71,76,72,69,100,85,69,30.06,29.95,29.81,10,8,2,20,11,30,0.50,7,Rain-Thunderstorm,151
2013-10-31,81,69,57,74,63,37,100,62,23,29.89,29.81,29.73,10,8,2,26,8,35,1.50,5,Rain,240